Hatfield, Minnesota
Current Conditions -  °F | °C
As of 8:14 AM on Monday 20 Oct 2014 (Local Time) from KPQN Reporting Station
Clear Clear  
Wind Chill: 40°   Ceiling: Unl
Heat Index: 43°   Visibility: 10mi
Dew Point: 37°   Wind: 5mph
Humidity: 81%   Direction: 340°NNW
Pressure: 30.06"   Gusts: NA
Location:  44.066°N, 96.3302°W
Report Text: KPQN 201314Z AUTO 34004KT 10SM CLR 06/03 A3006 RMK AO2
Loading
Personal Weather Stations






























Interactive Weather Map
Tropical Storm Tracking
New forecast layout! Learn more

10-Day Weather Forecast

Advertisements
Track Severe Weather on mobile